createdAt,value
2022-09-29T06:02:07.043Z,6.73
2022-09-29T06:05:08.859Z,6.78
2022-09-29T06:08:11.030Z,6.88
2022-09-29T06:11:15.717Z,6.90
2022-09-29T06:14:17.295Z,6.95
2022-09-29T06:17:18.863Z,7.04
2022-09-29T06:20:20.422Z,7.07
2022-09-29T06:23:22.005Z,7.10
2022-09-29T06:26:25.428Z,7.11
2022-09-29T06:29:27.119Z,7.13
2022-09-29T06:32:28.765Z,7.18
2022-09-29T06:35:49.054Z,7.24
2022-09-29T06:38:50.792Z,7.23
2022-09-29T06:41:54.386Z,7.30
2022-09-29T06:44:56.219Z,7.33
2022-09-29T06:48:03.330Z,7.46
2022-09-29T06:51:10.578Z,7.55
2022-09-29T06:54:20.710Z,7.65
2022-09-29T06:57:22.325Z,7.73
2022-09-29T07:00:23.896Z,7.76
2022-09-29T07:03:25.406Z,7.82
2022-09-29T07:06:26.961Z,7.81
2022-09-29T07:09:28.680Z,7.89
2022-09-29T07:12:30.398Z,7.97
2022-09-29T07:15:32.497Z,7.95
2022-09-29T07:18:38.922Z,8.02
2022-09-29T07:21:40.674Z,8.08
2022-09-29T07:24:43.163Z,8.21
2022-09-29T07:27:45.858Z,8.28
2022-09-29T07:30:47.492Z,8.24
2022-09-29T07:33:50.898Z,8.23
2022-09-29T07:36:52.590Z,8.27
2022-09-29T07:39:54.290Z,8.39
2022-09-29T07:42:55.840Z,8.53
2022-09-29T07:45:57.706Z,8.69
2022-09-29T07:48:59.451Z,8.85
2022-09-29T07:52:01.347Z,8.89
2022-09-29T07:55:04.034Z,8.91
2022-09-29T07:58:06.498Z,9.00
2022-09-29T08:01:12.621Z,9.14
2022-09-29T08:04:14.581Z,9.27
2022-09-29T08:07:16.574Z,9.36
2022-09-29T08:10:18.132Z,9.40
2022-09-29T08:13:19.769Z,9.44
2022-09-29T08:16:21.474Z,9.40
2022-09-29T08:19:23.196Z,9.34
2022-09-29T08:22:24.789Z,9.16
2022-09-29T08:25:26.673Z,9.08
2022-09-29T08:28:32.286Z,8.98
2022-09-29T08:31:34.429Z,8.88
2022-09-29T08:34:36.631Z,8.85
2022-09-29T08:37:38.826Z,8.91
2022-09-29T08:40:40.822Z,8.98
2022-09-29T08:43:44.117Z,9.12
2022-09-29T08:47:08.606Z,9.29
2022-09-29T08:50:27.920Z,9.50
2022-09-29T08:53:33.907Z,9.57
2022-09-29T08:56:35.815Z,9.58
2022-09-29T08:59:37.894Z,9.63
2022-09-29T09:02:50.903Z,9.74
2022-09-29T09:06:19.189Z,9.89
2022-09-29T09:09:55.919Z,9.85
2022-09-29T09:13:09.967Z,9.89
2022-09-29T09:16:39.917Z,9.89
2022-09-29T09:19:59.392Z,9.94
2022-09-29T09:23:22.768Z,10.04
2022-09-29T09:26:44.815Z,10.06
2022-09-29T09:29:50.005Z,10.04
2022-09-29T09:33:00.199Z,10.15
2022-09-29T09:36:34.231Z,10.21
2022-09-29T09:39:55.382Z,10.30
2022-09-29T09:43:05.221Z,10.38
2022-09-29T09:46:28.875Z,10.58
2022-09-29T09:49:39.387Z,10.99
2022-09-29T09:53:13.076Z,11.41
2022-09-29T09:56:31.195Z,11.82
2022-09-29T09:59:43.839Z,12.05
2022-09-29T10:02:50.125Z,12.28
2022-09-29T10:05:51.752Z,12.29
2022-09-29T10:08:53.337Z,12.34
2022-09-29T10:11:55.011Z,12.48
2022-09-29T10:15:05.385Z,12.66
2022-09-29T10:18:17.870Z,12.83
2022-09-29T10:21:24.789Z,12.87
2022-09-29T10:24:33.272Z,13.04
2022-09-29T10:27:40.063Z,13.04
2022-09-29T10:30:41.768Z,13.03
2022-09-29T10:33:49.773Z,13.04
2022-09-29T10:37:06.395Z,12.89
2022-09-29T10:40:07.848Z,12.78
2022-09-29T10:43:36.894Z,12.54
2022-09-29T10:46:56.081Z,12.41
2022-09-29T10:50:08.042Z,12.22
2022-09-29T10:53:33.191Z,12.07
2022-09-29T10:56:36.512Z,11.95
2022-09-29T10:59:46.909Z,11.87
2022-09-29T11:02:49.037Z,11.75
2022-09-29T11:05:54.539Z,11.79
2022-09-29T11:08:59.240Z,11.80
2022-09-29T11:12:04.116Z,11.90
2022-09-29T11:15:28.507Z,11.85
2022-09-29T11:18:35.970Z,11.87
2022-09-29T11:21:55.187Z,12.04
2022-09-29T11:25:08.752Z,12.28
2022-09-29T11:28:36.778Z,12.42
2022-09-29T11:31:44.357Z,12.56
2022-09-29T11:34:58.465Z,12.75
2022-09-29T11:38:33.968Z,13.10
2022-09-29T11:41:59.118Z,13.22
2022-09-29T11:45:03.927Z,13.23
2022-09-29T11:48:46.818Z,13.13
2022-09-29T11:52:20.043Z,12.99
2022-09-29T11:55:49.543Z,12.82
2022-09-29T11:59:15.617Z,12.73
2022-09-29T12:03:08.027Z,12.81
2022-09-29T12:06:19.982Z,12.73
2022-09-29T12:09:33.226Z,12.71
2022-09-29T12:13:04.051Z,12.57
2022-09-29T12:16:15.792Z,12.58
2022-09-29T12:19:23.678Z,12.56
2022-09-29T12:22:25.420Z,12.50
2022-09-29T12:25:31.221Z,12.50
2022-09-29T12:28:41.215Z,12.54
2022-09-29T12:31:49.192Z,12.54
2022-09-29T12:35:06.137Z,12.52
2022-09-29T12:38:28.543Z,12.52
2022-09-29T12:41:36.512Z,12.56
2022-09-29T12:44:44.255Z,12.56
2022-09-29T12:48:07.051Z,12.59
2022-09-29T12:51:36.688Z,12.64
2022-09-29T12:55:01.964Z,12.66
2022-09-29T12:58:09.548Z,12.66
2022-09-29T13:01:47.311Z,12.69
2022-09-29T13:05:13.790Z,12.69
2022-09-29T13:08:33.811Z,12.70
2022-09-29T13:11:58.484Z,12.67
2022-09-29T13:15:18.922Z,12.64
2022-09-29T13:18:23.615Z,12.67
2022-09-29T13:21:42.234Z,12.66
2022-09-29T13:25:11.796Z,12.63
2022-09-29T13:28:43.244Z,12.72
2022-09-29T13:31:46.451Z,12.86
2022-09-29T13:34:54.869Z,12.96
2022-09-29T13:38:08.658Z,12.95
2022-09-29T13:41:17.747Z,13.01
2022-09-29T13:44:20.632Z,12.88
2022-09-29T13:47:32.589Z,12.85
2022-09-29T13:50:44.774Z,12.75
2022-09-29T13:53:46.303Z,12.61
2022-09-29T13:56:58.586Z,12.47
2022-09-29T14:00:02.297Z,12.35
2022-09-29T14:03:33.368Z,12.27
2022-09-29T14:06:46.914Z,12.17
2022-09-29T14:09:50.000Z,12.14
2022-09-29T14:13:01.878Z,12.20
2022-09-29T14:16:26.349Z,12.26
2022-09-29T14:20:07.820Z,12.32
2022-09-29T14:23:11.029Z,12.38
2022-09-29T14:26:43.659Z,12.38
2022-09-29T14:29:58.004Z,12.35
2022-09-29T14:33:04.887Z,12.29
2022-09-29T14:36:14.415Z,12.27
2022-09-29T14:39:31.893Z,12.32
2022-09-29T14:42:34.177Z,12.37
2022-09-29T14:46:17.048Z,12.53
2022-09-29T14:50:05.578Z,12.68
2022-09-29T14:53:07.052Z,12.76
2022-09-29T14:56:34.536Z,12.73
2022-09-29T14:59:57.072Z,12.69
2022-09-29T15:03:23.640Z,12.67
2022-09-29T15:06:26.345Z,12.63
2022-09-29T15:09:28.256Z,12.55
2022-09-29T15:12:32.122Z,12.49
2022-09-29T15:15:38.277Z,12.43
2022-09-29T15:19:25.598Z,12.40
2022-09-29T15:23:04.667Z,12.37
2022-09-29T15:26:14.347Z,12.36
2022-09-29T15:29:19.212Z,12.34
2022-09-29T15:32:29.553Z,12.31
2022-09-29T15:35:32.262Z,12.26
2022-09-29T15:38:38.275Z,12.23
2022-09-29T15:41:40.324Z,12.20
2022-09-29T15:44:47.499Z,12.16
2022-09-29T15:47:57.688Z,12.10
2022-09-29T15:51:02.842Z,12.06
2022-09-29T15:54:10.229Z,12.02
2022-09-29T15:57:47.037Z,11.95
2022-09-29T16:00:49.155Z,11.82
2022-09-29T16:03:57.593Z,11.74
2022-09-29T16:06:59.474Z,11.62
2022-09-29T16:10:09.577Z,11.52
2022-09-29T16:13:19.761Z,11.47
2022-09-29T16:16:29.059Z,11.37
2022-09-29T16:19:32.652Z,11.28
2022-09-29T16:22:34.282Z,11.20
2022-09-29T16:25:36.032Z,11.12
2022-09-29T16:28:40.052Z,11.04
2022-09-29T16:31:44.618Z,10.95
2022-09-29T16:34:46.207Z,10.84
2022-09-29T16:37:47.836Z,10.73
2022-09-29T16:40:50.900Z,10.65
2022-09-29T16:44:02.151Z,10.57
2022-09-29T16:47:09.704Z,10.52
2022-09-29T16:50:14.354Z,10.41
2022-09-29T16:53:32.082Z,10.30
2022-09-29T16:56:35.610Z,10.17
2022-09-29T16:59:37.287Z,10.08
2022-09-29T17:02:38.920Z,9.99
2022-09-29T17:05:47.455Z,9.94
2022-09-29T17:08:51.848Z,9.90
2022-09-29T17:11:54.368Z,9.87
2022-09-29T17:14:57.155Z,9.84
2022-09-29T17:17:58.829Z,9.82
2022-09-29T17:21:00.518Z,9.77
2022-09-29T17:24:03.769Z,9.66
2022-09-29T17:27:23.927Z,9.60
2022-09-29T17:30:28.653Z,9.57
2022-09-29T17:33:31.089Z,9.55
2022-09-29T17:36:32.737Z,9.51
2022-09-29T17:39:34.275Z,9.50
2022-09-29T17:42:35.887Z,9.48
2022-09-29T17:45:39.506Z,9.47
2022-09-29T17:48:41.168Z,9.44
2022-09-29T17:51:42.790Z,9.39
2022-09-29T17:54:44.953Z,9.30
2022-09-29T17:57:47.759Z,9.22
